createdAt,value
2022-11-16T00:00:45.380Z,6.95
2022-11-16T00:03:47.936Z,6.86
2022-11-16T00:06:50.046Z,6.82
2022-11-16T00:09:52.354Z,6.91
2022-11-16T00:12:54.285Z,7.06
2022-11-16T00:15:57.706Z,6.96
2022-11-16T00:19:00.705Z,7.01
2022-11-16T00:22:03.330Z,6.96
2022-11-16T00:25:05.567Z,6.83
2022-11-16T00:28:07.768Z,6.87
2022-11-16T00:31:10.091Z,6.83
2022-11-16T00:34:12.808Z,6.90
2022-11-16T00:37:14.902Z,6.88
2022-11-16T00:40:17.210Z,6.84
2022-11-16T00:43:19.254Z,6.97
2022-11-16T00:46:21.449Z,6.91
2022-11-16T00:49:23.827Z,6.90
2022-11-16T00:52:26.029Z,7.00
2022-11-16T00:55:28.009Z,7.02
2022-11-16T00:58:31.054Z,6.91
2022-11-16T01:01:34.361Z,7.06
2022-11-16T01:04:37.259Z,6.97
2022-11-16T01:07:40.704Z,7.04
2022-11-16T01:10:43.322Z,7.08
2022-11-16T01:13:45.450Z,7.04
2022-11-16T01:16:49.384Z,6.97
2022-11-16T01:19:51.334Z,6.85
2022-11-16T01:22:53.838Z,6.84
2022-11-16T01:25:56.651Z,6.95
2022-11-16T01:28:59.630Z,6.90
2022-11-16T01:32:02.945Z,6.98
2022-11-16T01:35:07.036Z,7.01
2022-11-16T01:38:09.185Z,6.94
2022-11-16T01:41:15.525Z,7.00
2022-11-16T01:44:31.335Z,7.11
2022-11-16T01:47:34.419Z,7.01
2022-11-16T01:50:37.311Z,7.09
2022-11-16T01:53:40.460Z,7.10
2022-11-16T01:56:43.760Z,7.12
2022-11-16T01:59:47.706Z,7.04
2022-11-16T02:02:50.254Z,6.94
2022-11-16T02:06:02.768Z,6.92
2022-11-16T02:09:42.882Z,6.95
2022-11-16T02:13:12.372Z,7.00
2022-11-16T02:16:22.725Z,7.08
2022-11-16T02:19:33.433Z,7.05
2022-11-16T02:22:53.812Z,7.04
2022-11-16T02:26:11.331Z,7.14
2022-11-16T02:29:34.898Z,7.19
2022-11-16T02:32:44.296Z,7.14
2022-11-16T02:35:55.080Z,7.04
2022-11-16T02:39:00.646Z,7.08
2022-11-16T02:42:04.175Z,7.21
2022-11-16T02:45:08.736Z,7.25
2022-11-16T02:48:14.164Z,7.19
2022-11-16T02:51:17.079Z,7.16
2022-11-16T02:54:20.947Z,7.04
2022-11-16T02:57:28.798Z,7.09
2022-11-16T03:00:51.966Z,7.09
2022-11-16T03:03:58.905Z,7.08
2022-11-16T03:07:03.802Z,7.13
2022-11-16T03:10:06.561Z,7.03
2022-11-16T03:13:12.295Z,7.06
2022-11-16T03:16:17.308Z,7.09
2022-11-16T03:19:22.447Z,7.00
2022-11-16T03:22:31.265Z,6.98
2022-11-16T03:25:38.740Z,7.04
2022-11-16T03:28:49.759Z,7.09
2022-11-16T03:31:54.514Z,7.02
2022-11-16T03:35:00.182Z,7.08
2022-11-16T03:38:03.742Z,7.19
2022-11-16T03:41:07.710Z,7.13
2022-11-16T03:44:12.203Z,7.16
2022-11-16T03:47:14.446Z,7.06
2022-11-16T03:50:16.746Z,7.02
2022-11-16T03:53:18.960Z,7.00
2022-11-16T03:56:21.969Z,7.18
2022-11-16T03:59:24.211Z,7.16
2022-11-16T04:02:26.546Z,7.23
2022-11-16T04:05:47.838Z,7.19
2022-11-16T04:09:08.250Z,7.21
2022-11-16T04:12:30.856Z,7.04
2022-11-16T04:15:51.663Z,7.08
2022-11-16T04:19:12.586Z,7.27
2022-11-16T04:22:36.552Z,7.20
2022-11-16T04:25:40.382Z,7.20
2022-11-16T04:28:48.085Z,7.12
2022-11-16T04:32:09.770Z,7.17
2022-11-16T04:35:30.899Z,7.14
2022-11-16T04:38:33.669Z,7.18
2022-11-16T04:41:54.733Z,7.27
2022-11-16T04:45:16.134Z,7.26
2022-11-16T04:48:19.324Z,7.18
2022-11-16T04:51:22.069Z,7.27
2022-11-16T04:54:24.114Z,7.28
2022-11-16T04:57:26.351Z,7.17
2022-11-16T05:00:29.422Z,7.22
2022-11-16T05:03:31.708Z,7.22
2022-11-16T05:06:33.611Z,7.22
2022-11-16T05:09:36.346Z,7.19
2022-11-16T05:12:38.374Z,7.18
2022-11-16T05:15:40.959Z,7.12
2022-11-16T05:18:43.105Z,7.12
2022-11-16T05:21:46.717Z,7.11
2022-11-16T05:24:48.660Z,7.08
2022-11-16T05:27:50.916Z,7.16
2022-11-16T05:30:52.953Z,7.16
2022-11-16T05:33:55.221Z,7.18
2022-11-16T05:36:57.329Z,7.18
2022-11-16T05:39:59.793Z,7.20
2022-11-16T05:43:02.013Z,7.23
2022-11-16T05:46:05.120Z,7.14
2022-11-16T05:49:07.944Z,7.14
2022-11-16T05:52:10.695Z,7.12
2022-11-16T05:55:13.523Z,7.20
2022-11-16T05:58:16.356Z,7.24
2022-11-16T06:01:18.389Z,7.23
2022-11-16T06:04:28.101Z,7.23
2022-11-16T06:07:30.496Z,7.16
2022-11-16T06:10:33.416Z,7.17
2022-11-16T06:13:35.561Z,7.08
2022-11-16T06:16:37.864Z,7.05
2022-11-16T06:19:40.957Z,7.07
2022-11-16T06:22:43.480Z,7.09
2022-11-16T06:25:45.699Z,7.29
2022-11-16T06:28:48.279Z,7.23
2022-11-16T06:31:50.181Z,7.18
2022-11-16T06:34:52.506Z,7.25
2022-11-16T06:37:55.510Z,7.19
2022-11-16T06:40:59.060Z,7.18
2022-11-16T06:44:01.425Z,7.12
2022-11-16T06:47:04.747Z,7.14
2022-11-16T06:50:08.250Z,7.23
2022-11-16T06:53:10.772Z,7.21
2022-11-16T06:56:14.652Z,7.28
2022-11-16T06:59:17.282Z,7.35
2022-11-16T07:02:22.743Z,7.39
2022-11-16T07:05:25.097Z,7.37
2022-11-16T07:08:28.583Z,7.36
2022-11-16T07:11:31.409Z,7.28
2022-11-16T07:14:33.428Z,7.26
2022-11-16T07:17:36.798Z,7.38
2022-11-16T07:20:38.961Z,7.38
2022-11-16T07:23:41.636Z,7.28
2022-11-16T07:26:44.365Z,7.32
2022-11-16T07:29:47.656Z,7.36
2022-11-16T07:32:56.700Z,7.33
2022-11-16T07:36:00.674Z,7.39
2022-11-16T07:39:02.749Z,7.38
2022-11-16T07:42:11.324Z,7.42
2022-11-16T07:45:14.403Z,7.45
2022-11-16T07:48:17.775Z,7.55
2022-11-16T07:51:22.152Z,7.57
2022-11-16T07:54:27.305Z,7.60
2022-11-16T07:57:29.786Z,7.62
2022-11-16T08:00:33.372Z,7.57
2022-11-16T08:03:39.181Z,7.66
2022-11-16T08:06:41.711Z,7.69
2022-11-16T08:09:44.049Z,7.71
2022-11-16T08:12:46.719Z,7.69
2022-11-16T08:15:49.495Z,7.62
2022-11-16T08:18:51.716Z,7.61
2022-11-16T08:21:54.066Z,7.72
2022-11-16T08:24:56.093Z,7.70
2022-11-16T08:27:58.543Z,7.61
2022-11-16T08:31:00.827Z,7.72
2022-11-16T08:34:03.746Z,7.79
2022-11-16T08:37:06.638Z,7.68
2022-11-16T08:40:10.178Z,7.56
2022-11-16T08:43:12.341Z,7.68
2022-11-16T08:46:14.866Z,7.90
2022-11-16T08:49:18.174Z,7.84
2022-11-16T08:52:20.692Z,7.79
2022-11-16T08:55:24.717Z,7.77
2022-11-16T08:58:26.877Z,7.90
2022-11-16T09:01:30.553Z,7.85
2022-11-16T09:04:36.863Z,7.91
2022-11-16T09:07:39.910Z,8.08
2022-11-16T09:10:42.107Z,8.06
2022-11-16T09:13:44.960Z,7.93
2022-11-16T09:16:47.172Z,7.90
2022-11-16T09:19:49.188Z,8.04
2022-11-16T09:22:51.391Z,7.98
2022-11-16T09:25:54.521Z,8.08
2022-11-16T09:28:58.255Z,8.23
2022-11-16T09:32:00.425Z,8.19
2022-11-16T09:35:02.597Z,8.07
2022-11-16T09:38:06.483Z,8.14
2022-11-16T09:41:09.924Z,8.29
2022-11-16T09:44:24.220Z,8.33
2022-11-16T09:47:35.641Z,8.26
2022-11-16T09:50:48.438Z,8.26
2022-11-16T09:53:50.656Z,8.18
2022-11-16T09:56:54.369Z,8.06
2022-11-16T10:00:03.599Z,8.22
2022-11-16T10:03:15.146Z,8.19
2022-11-16T10:06:21.250Z,8.29
2022-11-16T10:09:23.282Z,8.32
2022-11-16T10:12:35.151Z,8.44
2022-11-16T10:15:43.488Z,8.46
2022-11-16T10:19:05.091Z,8.42
2022-11-16T10:22:21.569Z,8.51
2022-11-16T10:25:26.593Z,8.44
2022-11-16T10:28:37.936Z,8.38
2022-11-16T10:31:51.464Z,8.40
2022-11-16T10:35:11.835Z,8.50
2022-11-16T10:38:16.174Z,8.49
2022-11-16T10:41:37.400Z,8.41
2022-11-16T10:44:43.782Z,8.49
2022-11-16T10:47:50.095Z,8.61
2022-11-16T10:50:52.781Z,8.60
2022-11-16T10:53:55.965Z,8.68
2022-11-16T10:57:02.801Z,8.65
2022-11-16T11:00:07.572Z,8.66
2022-11-16T11:03:13.797Z,8.76
2022-11-16T11:06:15.687Z,8.73
2022-11-16T11:09:21.495Z,8.73
2022-11-16T11:12:39.236Z,8.73
2022-11-16T11:15:42.442Z,8.76
2022-11-16T11:18:44.375Z,8.66
2022-11-16T11:21:46.994Z,8.58
2022-11-16T11:24:48.962Z,8.54
2022-11-16T11:27:53.222Z,8.58
2022-11-16T11:30:57.655Z,8.68
2022-11-16T11:34:04.192Z,8.66
2022-11-16T11:37:06.719Z,8.62
2022-11-16T11:40:27.830Z,8.59
2022-11-16T11:43:29.835Z,8.62
2022-11-16T11:47:10.994Z,8.73
2022-11-16T11:50:02.956Z,8.77
2022-11-16T11:53:16.043Z,8.79
2022-11-16T11:56:18.626Z,8.74
2022-11-16T11:59:23.752Z,8.72
2022-11-16T12:02:31.880Z,8.70
2022-11-16T12:05:45.703Z,8.60
2022-11-16T12:08:50.328Z,8.65
2022-11-16T12:12:16.087Z,8.58
2022-11-16T12:15:56.592Z,8.56
2022-11-16T12:19:12.944Z,8.53
2022-11-16T12:22:26.869Z,8.45
2022-11-16T12:25:37.577Z,8.41
2022-11-16T12:29:04.027Z,8.39
2022-11-16T12:32:06.278Z,8.43
2022-11-16T12:35:17.230Z,8.35
2022-11-16T12:38:28.538Z,8.37
2022-11-16T12:41:49.241Z,8.35
2022-11-16T12:44:51.349Z,8.34
2022-11-16T12:48:03.952Z,8.53
2022-11-16T12:51:06.129Z,8.49
2022-11-16T12:54:35.894Z,8.37
2022-11-16T12:57:38.035Z,8.49
2022-11-16T13:00:49.178Z,8.46
2022-11-16T13:03:57.317Z,8.41
2022-11-16T13:07:11.312Z,8.41
2022-11-16T13:10:27.215Z,8.43
2022-11-16T13:13:36.285Z,8.39
2022-11-16T13:16:39.546Z,8.34
2022-11-16T13:19:44.151Z,8.42
2022-11-16T13:22:51.532Z,8.33
2022-11-16T13:26:10.568Z,8.36
2022-11-16T13:29:15.879Z,8.39
2022-11-16T13:32:23.130Z,8.43
2022-11-16T13:35:25.707Z,8.41
2022-11-16T13:38:46.209Z,8.51
2022-11-16T13:42:04.853Z,8.50
2022-11-16T13:45:08.867Z,8.49
2022-11-16T13:48:22.193Z,8.49
2022-11-16T13:51:24.714Z,8.47
2022-11-16T13:54:45.108Z,8.55
2022-11-16T13:57:50.797Z,8.39
2022-11-16T14:00:58.861Z,8.39
2022-11-16T14:04:20.260Z,8.30
2022-11-16T14:07:28.920Z,8.33
2022-11-16T14:10:37.187Z,8.33
2022-11-16T14:13:40.577Z,8.33
2022-11-16T14:16:43.065Z,8.34
2022-11-16T14:19:49.073Z,8.35
2022-11-16T14:22:56.105Z,8.31
2022-11-16T14:26:04.051Z,8.33
2022-11-16T14:29:25.203Z,8.35
2022-11-16T14:32:30.792Z,8.38
2022-11-16T14:35:38.809Z,8.35
2022-11-16T14:38:44.223Z,8.40
2022-11-16T14:41:46.563Z,8.31
2022-11-16T14:44:49.423Z,8.20
2022-11-16T14:47:53.273Z,8.21
2022-11-16T14:51:15.047Z,8.27
2022-11-16T14:54:29.787Z,8.16
2022-11-16T14:57:31.759Z,8.13
2022-11-16T15:00:34.309Z,8.12
2022-11-16T15:03:45.551Z,8.12
2022-11-16T15:06:53.359Z,8.14
2022-11-16T15:09:56.574Z,8.22
2022-11-16T15:12:58.830Z,8.11
2022-11-16T15:16:30.065Z,8.19
2022-11-16T15:19:32.230Z,8.14
2022-11-16T15:22:39.672Z,8.16
2022-11-16T15:26:02.299Z,8.16
2022-11-16T15:29:04.198Z,8.17
2022-11-16T15:32:06.864Z,8.20
2022-11-16T15:35:15.367Z,8.23
2022-11-16T15:38:17.489Z,8.15
2022-11-16T15:41:19.440Z,8.15
2022-11-16T15:44:22.579Z,8.16
2022-11-16T15:47:24.960Z,8.19
2022-11-16T15:50:28.049Z,8.11
2022-11-16T15:53:40.204Z,8.12
2022-11-16T15:56:42.587Z,8.14
2022-11-16T15:59:48.057Z,8.12
2022-11-16T16:02:51.173Z,8.16
2022-11-16T16:05:54.526Z,8.16
2022-11-16T16:09:06.137Z,8.16
2022-11-16T16:12:37.674Z,8.15
2022-11-16T16:15:40.233Z,8.21
2022-11-16T16:18:43.195Z,8.22
2022-11-16T16:21:46.008Z,8.13
2022-11-16T16:24:48.242Z,8.14
2022-11-16T16:27:50.148Z,8.14
2022-11-16T16:30:52.329Z,8.13
2022-11-16T16:33:55.565Z,8.19
2022-11-16T16:36:57.699Z,8.20
2022-11-16T16:40:00.067Z,8.26
2022-11-16T16:43:02.234Z,8.28
2022-11-16T16:46:04.512Z,8.19
2022-11-16T16:49:07.941Z,8.21
2022-11-16T16:52:11.639Z,8.20
2022-11-16T16:55:13.776Z,8.15
2022-11-16T16:58:15.980Z,8.11
2022-11-16T17:01:18.178Z,8.09
2022-11-16T17:04:20.099Z,8.21
2022-11-16T17:07:22.315Z,8.13
2022-11-16T17:10:24.350Z,8.17
2022-11-16T17:13:26.481Z,8.16
2022-11-16T17:16:28.424Z,8.24
2022-11-16T17:19:30.806Z,8.09
2022-11-16T17:22:33.453Z,8.10
2022-11-16T17:25:37.010Z,8.01
2022-11-16T17:28:38.853Z,8.06
2022-11-16T17:31:43.606Z,8.05
2022-11-16T17:34:45.487Z,8.09
2022-11-16T17:37:47.697Z,8.02
2022-11-16T17:40:49.588Z,8.04
2022-11-16T17:43:52.842Z,8.03
2022-11-16T17:46:54.827Z,8.06
2022-11-16T17:49:57.002Z,8.05
2022-11-16T17:52:58.907Z,8.18
2022-11-16T17:56:01.903Z,8.06
2022-11-16T17:59:03.796Z,8.05
2022-11-16T18:02:05.965Z,8.09
2022-11-16T18:05:08.321Z,8.06
2022-11-16T18:08:10.307Z,8.07
2022-11-16T18:11:19.442Z,8.21
2022-11-16T18:14:21.332Z,8.15
2022-11-16T18:17:23.501Z,8.05
2022-11-16T18:20:27.566Z,8.12
2022-11-16T18:23:29.757Z,8.02
2022-11-16T18:26:31.655Z,8.11
2022-11-16T18:29:35.250Z,8.14
2022-11-16T18:32:37.234Z,8.05
2022-11-16T18:35:39.355Z,8.07
2022-11-16T18:38:41.281Z,8.02
2022-11-16T18:41:48.794Z,7.98
2022-11-16T18:44:55.209Z,7.95
2022-11-16T18:47:57.373Z,7.98
2022-11-16T18:51:03.098Z,8.02
2022-11-16T18:54:05.677Z,8.03
2022-11-16T18:57:07.526Z,8.04
2022-11-16T19:00:10.010Z,8.14
2022-11-16T19:03:11.942Z,8.08
2022-11-16T19:06:16.993Z,8.00
2022-11-16T19:09:18.844Z,8.17
2022-11-16T19:12:20.974Z,8.00
2022-11-16T19:15:23.529Z,7.96
2022-11-16T19:18:25.969Z,8.03
2022-11-16T19:21:28.278Z,8.03
2022-11-16T19:24:30.428Z,8.03
2022-11-16T19:27:32.557Z,8.05
2022-11-16T19:30:34.929Z,8.10
2022-11-16T19:33:37.363Z,8.06
2022-11-16T19:36:39.885Z,7.97
2022-11-16T19:39:41.752Z,8.04
2022-11-16T19:42:43.953Z,8.06
2022-11-16T19:45:45.829Z,7.93
2022-11-16T19:48:49.324Z,7.96
2022-11-16T19:51:51.591Z,7.91
2022-11-16T19:54:53.887Z,7.93
2022-11-16T19:57:55.845Z,7.93
2022-11-16T20:01:05.135Z,7.89
2022-11-16T20:04:07.480Z,7.84
2022-11-16T20:07:10.904Z,7.94
2022-11-16T20:10:13.093Z,7.92
2022-11-16T20:13:14.996Z,7.92
2022-11-16T20:16:18.373Z,7.91
2022-11-16T20:19:20.864Z,7.94
2022-11-16T20:22:23.071Z,7.98
2022-11-16T20:25:24.970Z,8.06
2022-11-16T20:28:27.128Z,7.93
2022-11-16T20:31:30.398Z,7.93
2022-11-16T20:34:32.542Z,7.91
2022-11-16T20:37:34.424Z,7.91
2022-11-16T20:40:36.621Z,7.87
2022-11-16T20:43:39.333Z,7.87
2022-11-16T20:46:43.814Z,7.87
2022-11-16T20:49:45.691Z,7.91
2022-11-16T20:52:52.523Z,8.00
2022-11-16T20:55:57.157Z,7.98
2022-11-16T20:58:59.512Z,7.90
2022-11-16T21:02:01.435Z,7.87
2022-11-16T21:05:03.726Z,7.85
2022-11-16T21:08:05.669Z,7.89
2022-11-16T21:11:21.584Z,7.88
2022-11-16T21:14:23.454Z,7.94
2022-11-16T21:17:25.600Z,7.92
2022-11-16T21:20:28.652Z,7.88
2022-11-16T21:23:32.102Z,8.03
2022-11-16T21:26:34.467Z,8.06
2022-11-16T21:29:36.594Z,8.08
2022-11-16T21:32:38.428Z,7.94
2022-11-16T21:35:40.579Z,7.86
2022-11-16T21:38:42.758Z,7.96
2022-11-16T21:41:44.958Z,8.00
2022-11-16T21:44:46.886Z,8.05
2022-11-16T21:47:50.088Z,7.97
2022-11-16T21:51:18.549Z,8.03
2022-11-16T21:54:20.676Z,8.04
2022-11-16T21:57:22.864Z,8.00
2022-11-16T22:00:25.260Z,8.00
2022-11-16T22:03:28.436Z,8.03
2022-11-16T22:06:49.042Z,8.00
2022-11-16T22:09:51.231Z,7.93
2022-11-16T22:12:53.115Z,7.96
2022-11-16T22:15:55.301Z,7.97
2022-11-16T22:18:57.183Z,8.08
2022-11-16T22:21:59.922Z,8.05
2022-11-16T22:25:01.914Z,8.07
2022-11-16T22:28:20.206Z,8.07
2022-11-16T22:31:22.999Z,7.98
2022-11-16T22:34:25.141Z,8.01
2022-11-16T22:37:27.014Z,8.07
2022-11-16T22:40:29.174Z,8.04
2022-11-16T22:43:31.585Z,8.01
2022-11-16T22:46:33.776Z,8.10
2022-11-16T22:49:35.676Z,7.96
2022-11-16T22:52:37.802Z,8.05
2022-11-16T22:55:39.757Z,8.04
2022-11-16T22:58:42.187Z,7.99
2022-11-16T23:01:44.062Z,7.95
2022-11-16T23:04:46.263Z,8.02
2022-11-16T23:07:48.179Z,8.09
2022-11-16T23:11:22.691Z,7.97
2022-11-16T23:14:43.140Z,7.99
2022-11-16T23:17:45.641Z,7.98
2022-11-16T23:21:06.045Z,8.00
2022-11-16T23:24:30.424Z,8.11
2022-11-16T23:27:52.564Z,8.02
2022-11-16T23:30:54.730Z,8.05
2022-11-16T23:33:56.651Z,8.15
2022-11-16T23:37:02.433Z,8.09
2022-11-16T23:40:04.478Z,8.08
2022-11-16T23:43:26.017Z,8.15
2022-11-16T23:46:28.635Z,8.10
2022-11-16T23:49:30.805Z,8.03
2022-11-16T23:52:32.656Z,8.01
2022-11-16T23:55:36.184Z,8.00
2022-11-16T23:58:38.064Z,7.98
